sensor_id;sensor_type;location;lat;lon;timestamp;pressure;altitude;pressure_sealevel;temperature;humidity
41898;BME280;27576;53.366;-1.498;2024-02-16T00:01:41;99045.81;;;10.81;100.00
41898;BME280;27576;53.366;-1.498;2024-02-16T00:04:06;99095.75;;;10.97;100.00
41898;BME280;27576;53.366;-1.498;2024-02-16T00:06:32;99081.94;;;10.95;100.00
41898;BME280;27576;53.366;-1.498;2024-02-16T00:08:59;99091.44;;;10.96;100.00
41898;BME280;27576;53.366;-1.498;2024-02-16T00:11:24;99082.84;;;10.91;100.00
41898;BME280;27576;53.366;-1.498;2024-02-16T00:13:50;99070.00;;;10.81;100.00
41898;BME280;27576;53.366;-1.498;2024-02-16T00:16:16;99073.50;;;10.74;100.00
41898;BME280;27576;53.366;-1.498;2024-02-16T00:18:41;99154.34;;;11.16;100.00
41898;BME280;27576;53.366;-1.498;2024-02-16T00:21:06;99150.00;;;11.15;100.00
41898;BME280;27576;53.366;-1.498;2024-02-16T00:23:32;99127.69;;;10.99;100.00
41898;BME280;27576;53.366;-1.498;2024-02-16T00:25:59;99108.84;;;10.85;100.00
41898;BME280;27576;53.366;-1.498;2024-02-16T00:28:24;99143.25;;;10.99;100.00
41898;BME280;27576;53.366;-1.498;2024-02-16T00:30:49;99154.47;;;11.01;100.00
41898;BME280;27576;53.366;-1.498;2024-02-16T00:33:15;99121.00;;;10.75;100.00
41898;BME280;27576;53.366;-1.498;2024-02-16T00:35:42;99124.44;;;10.75;100.00
41898;BME280;27576;53.366;-1.498;2024-02-16T00:38:07;99107.25;;;10.70;100.00
41898;BME280;27576;53.366;-1.498;2024-02-16T00:40:33;99151.94;;;10.92;100.00
41898;BME280;27576;53.366;-1.498;2024-02-16T00:42:58;99089.22;;;10.56;100.00
41898;BME280;27576;53.366;-1.498;2024-02-16T00:45:23;99142.53;;;10.80;100.00
41898;BME280;27576;53.366;-1.498;2024-02-16T00:47:49;99140.84;;;10.79;100.00
41898;BME280;27576;53.366;-1.498;2024-02-16T00:50:14;99098.75;;;10.51;100.00
41898;BME280;27576;53.366;-1.498;2024-02-16T00:52:40;99169.22;;;10.94;100.00
41898;BME280;27576;53.366;-1.498;2024-02-16T00:55:06;99127.09;;;10.68;100.00
41898;BME280;27576;53.366;-1.498;2024-02-16T00:57:31;99134.00;;;10.70;100.00
41898;BME280;27576;53.366;-1.498;2024-02-16T00:59:59;99146.97;;;10.70;100.00
41898;BME280;27576;53.366;-1.498;2024-02-16T01:02:24;99133.25;;;10.54;100.00
41898;BME280;27576;53.366;-1.498;2024-02-16T01:04:51;99177.06;;;10.84;100.00
41898;BME280;27576;53.366;-1.498;2024-02-16T01:07:17;99129.81;;;10.54;100.00
41898;BME280;27576;53.366;-1.498;2024-02-16T01:09:42;99183.94;;;10.91;100.00
41898;BME280;27576;53.366;-1.498;2024-02-16T01:12:08;99141.84;;;10.60;100.00
41898;BME280;27576;53.366;-1.498;2024-02-16T01:14:34;99132.38;;;10.55;100.00
41898;BME280;27576;53.366;-1.498;2024-02-16T01:16:59;99170.19;;;10.81;100.00
41898;BME280;27576;53.366;-1.498;2024-02-16T01:19:24;99121.25;;;10.44;100.00
41898;BME280;27576;53.366;-1.498;2024-02-16T01:21:50;99160.78;;;10.69;100.00
41898;BME280;27576;53.366;-1.498;2024-02-16T01:24:18;99125.56;;;10.47;100.00
41898;BME280;27576;53.366;-1.498;2024-02-16T01:26:45;99176.28;;;10.75;100.00
41898;BME280;27576;53.366;-1.498;2024-02-16T01:29:10;99169.41;;;10.70;100.00
41898;BME280;27576;53.366;-1.498;2024-02-16T01:31:36;99150.50;;;10.62;100.00
41898;BME280;27576;53.366;-1.498;2024-02-16T01:34:02;99117.03;;;10.34;100.00
41898;BME280;27576;53.366;-1.498;2024-02-16T01:36:27;99164.25;;;10.67;100.00
41898;BME280;27576;53.366;-1.498;2024-02-16T01:38:53;99148.75;;;10.61;100.00
41898;BME280;27576;53.366;-1.498;2024-02-16T01:41:18;99144.44;;;10.60;100.00
41898;BME280;27576;53.366;-1.498;2024-02-16T01:43:43;99164.22;;;10.71;100.00
41898;BME280;27576;53.366;-1.498;2024-02-16T01:46:09;99178.88;;;10.75;100.00
41898;BME280;27576;53.366;-1.498;2024-02-16T01:48:37;99151.44;;;10.50;100.00
41898;BME280;27576;53.366;-1.498;2024-02-16T01:51:08;99128.16;;;10.41;100.00
41898;BME280;27576;53.366;-1.498;2024-02-16T01:53:35;99114.41;;;10.36;100.00
41898;BME280;27576;53.366;-1.498;2024-02-16T01:56:02;99123.84;;;10.41;100.00
41898;BME280;27576;53.366;-1.498;2024-02-16T01:58:27;99118.75;;;10.29;100.00
41898;BME280;27576;53.366;-1.498;2024-02-16T02:00:53;99108.38;;;10.32;100.00
41898;BME280;27576;53.366;-1.498;2024-02-16T02:03:19;99120.44;;;10.36;100.00
41898;BME280;27576;53.366;-1.498;2024-02-16T02:05:46;99112.72;;;10.30;100.00
41898;BME280;27576;53.366;-1.498;2024-02-16T02:08:12;99152.31;;;10.46;100.00
41898;BME280;27576;53.366;-1.498;2024-02-16T02:10:38;99149.78;;;10.38;100.00
41898;BME280;27576;53.366;-1.498;2024-02-16T02:13:03;99157.53;;;10.43;100.00
41898;BME280;27576;53.366;-1.498;2024-02-16T02:15:29;99132.59;;;10.25;100.00
41898;BME280;27576;53.366;-1.498;2024-02-16T02:17:54;99115.41;;;10.10;100.00
41898;BME280;27576;53.366;-1.498;2024-02-16T02:20:20;99112.81;;;10.10;100.00
41898;BME280;27576;53.366;-1.498;2024-02-16T02:22:45;99124.00;;;10.18;100.00
41898;BME280;27576;53.366;-1.498;2024-02-16T02:25:10;99177.34;;;10.50;100.00
41898;BME280;27576;53.366;-1.498;2024-02-16T02:27:37;99185.94;;;10.52;100.00
41898;BME280;27576;53.366;-1.498;2024-02-16T02:30:02;99124.00;;;10.12;100.00
41898;BME280;27576;53.366;-1.498;2024-02-16T02:32:28;99173.16;;;10.27;100.00
41898;BME280;27576;53.366;-1.498;2024-02-16T02:34:54;99182.59;;;10.35;100.00
41898;BME280;27576;53.366;-1.498;2024-02-16T02:37:19;99198.97;;;10.43;100.00
41898;BME280;27576;53.366;-1.498;2024-02-16T02:39:44;99213.56;;;10.53;100.00
41898;BME280;27576;53.366;-1.498;2024-02-16T02:42:10;99154.16;;;10.18;100.00
41898;BME280;27576;53.366;-1.498;2024-02-16T02:44:35;99138.75;;;9.98;100.00
41898;BME280;27576;53.366;-1.498;2024-02-16T02:47:01;99121.50;;;9.97;100.00
41898;BME280;27576;53.366;-1.498;2024-02-16T02:49:26;99169.69;;;10.24;100.00
41898;BME280;27576;53.366;-1.498;2024-02-16T02:51:52;99186.94;;;10.29;100.00
41898;BME280;27576;53.366;-1.498;2024-02-16T02:54:17;99149.09;;;10.02;100.00
41898;BME280;27576;53.366;-1.498;2024-02-16T02:56:43;99219.69;;;10.43;100.00
41898;BME280;27576;53.366;-1.498;2024-02-16T02:59:09;99213.69;;;10.35;100.00
41898;BME280;27576;53.366;-1.498;2024-02-16T03:01:36;99180.09;;;10.13;100.00
41898;BME280;27576;53.366;-1.498;2024-02-16T03:04:02;99226.56;;;10.41;100.00
41898;BME280;27576;53.366;-1.498;2024-02-16T03:06:27;99180.94;;;10.14;100.00
41898;BME280;27576;53.366;-1.498;2024-02-16T03:08:53;99193.84;;;10.30;100.00
41898;BME280;27576;53.366;-1.498;2024-02-16T03:11:18;99149.06;;;10.05;100.00
41898;BME280;27576;53.366;-1.498;2024-02-16T03:13:44;99179.19;;;10.20;100.00
41898;BME280;27576;53.366;-1.498;2024-02-16T03:16:09;99221.44;;;10.38;100.00
41898;BME280;27576;53.366;-1.498;2024-02-16T03:18:35;99220.59;;;10.32;100.00
41898;BME280;27576;53.366;-1.498;2024-02-16T03:21:01;99134.53;;;9.78;100.00
41898;BME280;27576;53.366;-1.498;2024-02-16T03:23:27;99226.59;;;10.36;100.00
41898;BME280;27576;53.366;-1.498;2024-02-16T03:25:52;99179.25;;;10.11;100.00
41898;BME280;27576;53.366;-1.498;2024-02-16T03:28:18;99193.91;;;10.15;100.00
41898;BME280;27576;53.366;-1.498;2024-02-16T03:30:43;99242.16;;;10.38;100.00
41898;BME280;27576;53.366;-1.498;2024-02-16T03:33:09;99243.88;;;10.39;100.00
41898;BME280;27576;53.366;-1.498;2024-02-16T03:35:35;99224.06;;;10.22;100.00
41898;BME280;27576;53.366;-1.498;2024-02-16T03:38:02;99221.50;;;10.13;100.00
41898;BME280;27576;53.366;-1.498;2024-02-16T03:40:28;99211.19;;;10.07;100.00
41898;BME280;27576;53.366;-1.498;2024-02-16T03:42:54;99206.03;;;10.04;100.00
41898;BME280;27576;53.366;-1.498;2024-02-16T03:45:19;99191.38;;;9.97;100.00
41898;BME280;27576;53.366;-1.498;2024-02-16T03:47:44;99228.41;;;10.19;100.00
41898;BME280;27576;53.366;-1.498;2024-02-16T03:50:10;99271.47;;;10.43;100.00
41898;BME280;27576;53.366;-1.498;2024-02-16T03:52:36;99250.81;;;10.30;100.00
41898;BME280;27576;53.366;-1.498;2024-02-16T03:55:02;99250.84;;;10.26;100.00
41898;BME280;27576;53.366;-1.498;2024-02-16T03:57:27;99242.19;;;10.22;100.00
41898;BME280;27576;53.366;-1.498;2024-02-16T03:59:53;99235.34;;;10.11;100.00
41898;BME280;27576;53.366;-1.498;2024-02-16T04:02:19;99270.63;;;10.33;100.00
41898;BME280;27576;53.366;-1.498;2024-02-16T04:04:45;99241.34;;;10.16;100.00
41898;BME280;27576;53.366;-1.498;2024-02-16T04:07:10;99271.47;;;10.40;100.00
41898;BME280;27576;53.366;-1.498;2024-02-16T04:09:35;99267.19;;;10.32;100.00
41898;BME280;27576;53.366;-1.498;2024-02-16T04:12:01;99276.66;;;10.37;100.00
41898;BME280;27576;53.366;-1.498;2024-02-16T04:14:28;99270.69;;;10.27;100.00
41898;BME280;27576;53.366;-1.498;2024-02-16T04:16:54;99275.00;;;10.26;100.00
41898;BME280;27576;53.366;-1.498;2024-02-16T04:19:23;99218.16;;;9.91;100.00
41898;BME280;27576;53.366;-1.498;2024-02-16T04:21:48;99240.53;;;10.04;100.00
41898;BME280;27576;53.366;-1.498;2024-02-16T04:24:13;99249.13;;;10.13;100.00
41898;BME280;27576;53.366;-1.498;2024-02-16T04:26:39;99265.47;;;10.21;100.00
41898;BME280;27576;53.366;-1.498;2024-02-16T04:29:04;99250.84;;;10.14;100.00
41898;BME280;27576;53.366;-1.498;2024-02-16T04:31:29;99280.16;;;10.23;100.00
41898;BME280;27576;53.366;-1.498;2024-02-16T04:33:55;99278.41;;;10.24;100.00
41898;BME280;27576;53.366;-1.498;2024-02-16T04:36:20;99275.84;;;10.22;100.00
41898;BME280;27576;53.366;-1.498;2024-02-16T04:38:45;99231.94;;;9.92;100.00
41898;BME280;27576;53.366;-1.498;2024-02-16T04:41:11;99270.72;;;10.08;100.00
41898;BME280;27576;53.366;-1.498;2024-02-16T04:43:36;99259.53;;;10.03;100.00
41898;BME280;27576;53.366;-1.498;2024-02-16T04:46:02;99317.22;;;10.39;100.00
41898;BME280;27576;53.366;-1.498;2024-02-16T04:48:28;99266.38;;;10.06;100.00
41898;BME280;27576;53.366;-1.498;2024-02-16T04:50:54;99329.31;;;10.37;100.00
41898;BME280;27576;53.366;-1.498;2024-02-16T04:53:19;99277.63;;;10.03;100.00
41898;BME280;27576;53.366;-1.498;2024-02-16T04:55:45;99337.09;;;10.36;100.00
41898;BME280;27576;53.366;-1.498;2024-02-16T04:58:10;99298.34;;;10.06;100.00
41898;BME280;27576;53.366;-1.498;2024-02-16T05:00:37;99362.13;;;10.32;100.00
41898;BME280;27576;53.366;-1.498;2024-02-16T05:03:02;99363.00;;;10.31;100.00
41898;BME280;27576;53.366;-1.498;2024-02-16T05:05:28;99363.84;;;10.33;100.00
41898;BME280;27576;53.366;-1.498;2024-02-16T05:07:53;99296.66;;;9.95;100.00
41898;BME280;27576;53.366;-1.498;2024-02-16T05:10:19;99364.72;;;10.32;100.00
41898;BME280;27576;53.366;-1.498;2024-02-16T05:12:45;99319.03;;;10.02;100.00
41898;BME280;27576;53.366;-1.498;2024-02-16T05:15:11;99368.19;;;10.29;100.00
41898;BME280;27576;53.366;-1.498;2024-02-16T05:17:39;99289.78;;;9.80;100.00
41898;BME280;27576;53.366;-1.498;2024-02-16T05:20:09;99378.56;;;10.26;100.00
41898;BME280;27576;53.366;-1.498;2024-02-16T05:22:35;99384.59;;;10.22;100.00
41898;BME280;27576;53.366;-1.498;2024-02-16T05:25:00;99323.38;;;9.81;100.00
41898;BME280;27576;53.366;-1.498;2024-02-16T05:27:25;99340.66;;;9.82;100.00
41898;BME280;27576;53.366;-1.498;2024-02-16T05:29:51;99342.38;;;9.77;100.00
41898;BME280;27576;53.366;-1.498;2024-02-16T05:32:17;99371.69;;;9.89;100.00
41898;BME280;27576;53.366;-1.498;2024-02-16T05:34:42;99352.75;;;9.71;100.00
41898;BME280;27576;53.366;-1.498;2024-02-16T05:37:08;99406.19;;;10.03;100.00
41898;BME280;27576;53.366;-1.498;2024-02-16T05:39:36;99402.72;;;9.99;100.00
41898;BME280;27576;53.366;-1.498;2024-02-16T05:42:18;99360.50;;;9.71;100.00
41898;BME280;27576;53.366;-1.498;2024-02-16T05:44:43;99366.50;;;9.70;100.00
41898;BME280;27576;53.366;-1.498;2024-02-16T05:47:09;99341.50;;;9.51;100.00
41898;BME280;27576;53.366;-1.498;2024-02-16T05:49:34;99372.56;;;9.66;100.00
41898;BME280;27576;53.366;-1.498;2024-02-16T05:52:00;99395.84;;;9.75;100.00
41898;BME280;27576;53.366;-1.498;2024-02-16T05:54:46;99416.53;;;9.88;100.00
41898;BME280;27576;53.366;-1.498;2024-02-16T05:57:13;99355.31;;;9.41;100.00
41898;BME280;27576;53.366;-1.498;2024-02-16T05:59:38;99441.53;;;9.81;100.00
41898;BME280;27576;53.366;-1.498;2024-02-16T06:02:05;99418.28;;;9.67;100.00
41898;BME280;27576;53.366;-1.498;2024-02-16T06:04:31;99409.63;;;9.62;100.00
41898;BME280;27576;53.366;-1.498;2024-02-16T06:06:57;99435.53;;;9.71;100.00
41898;BME280;27576;53.366;-1.498;2024-02-16T06:09:22;99398.41;;;9.45;100.00
41898;BME280;27576;53.366;-1.498;2024-02-16T06:11:48;99380.28;;;9.26;100.00
41898;BME280;27576;53.366;-1.498;2024-02-16T06:14:13;99410.50;;;9.44;100.00
41898;BME280;27576;53.366;-1.498;2024-02-16T06:16:40;99445.84;;;9.62;100.00
41898;BME280;27576;53.366;-1.498;2024-02-16T06:19:07;99394.06;;;9.21;100.00
41898;BME280;27576;53.366;-1.498;2024-02-16T06:21:34;99411.34;;;9.36;100.00
41898;BME280;27576;53.366;-1.498;2024-02-16T06:23:59;99403.56;;;9.26;100.00
41898;BME280;27576;53.366;-1.498;2024-02-16T06:26:24;99458.78;;;9.59;100.00
41898;BME280;27576;53.366;-1.498;2024-02-16T06:28:50;99424.25;;;9.34;100.00
41898;BME280;27576;53.366;-1.498;2024-02-16T06:31:15;99421.69;;;9.36;100.00
41898;BME280;27576;53.366;-1.498;2024-02-16T06:33:40;99441.50;;;9.40;100.00
41898;BME280;27576;53.366;-1.498;2024-02-16T06:36:06;99457.03;;;9.47;100.00
41898;BME280;27576;53.366;-1.498;2024-02-16T06:38:32;99413.88;;;9.13;100.00
41898;BME280;27576;53.366;-1.498;2024-02-16T06:40:57;99457.00;;;9.33;100.00
41898;BME280;27576;53.366;-1.498;2024-02-16T06:43:23;99400.91;;;9.03;100.00
41898;BME280;27576;53.366;-1.498;2024-02-16T06:45:48;99422.44;;;9.01;100.00
41898;BME280;27576;53.366;-1.498;2024-02-16T06:48:14;99424.16;;;9.03;100.00
41898;BME280;27576;53.366;-1.498;2024-02-16T06:50:39;99452.63;;;9.08;100.00
41898;BME280;27576;53.366;-1.498;2024-02-16T06:53:04;99476.75;;;9.10;100.00
41898;BME280;27576;53.366;-1.498;2024-02-16T06:55:30;99480.16;;;9.07;100.00
41898;BME280;27576;53.366;-1.498;2024-02-16T06:57:56;99478.47;;;9.05;100.00
41898;BME280;27576;53.366;-1.498;2024-02-16T07:00:25;99476.69;;;8.98;100.00
41898;BME280;27576;53.366;-1.498;2024-02-16T07:02:50;99472.38;;;8.92;100.00
41898;BME280;27576;53.366;-1.498;2024-02-16T07:05:16;99473.19;;;8.82;100.00
41898;BME280;27576;53.366;-1.498;2024-02-16T07:07:43;99474.84;;;8.75;100.00
41898;BME280;27576;53.366;-1.498;2024-02-16T07:10:08;99478.31;;;8.73;100.00
41898;BME280;27576;53.366;-1.498;2024-02-16T07:12:39;99483.41;;;8.68;100.00
41898;BME280;27576;53.366;-1.498;2024-02-16T07:15:04;99468.78;;;8.61;100.00
41898;BME280;27576;53.366;-1.498;2024-02-16T07:17:30;99469.56;;;8.52;100.00
41898;BME280;27576;53.366;-1.498;2024-02-16T07:19:55;99518.81;;;8.77;100.00
41898;BME280;27576;53.366;-1.498;2024-02-16T07:22:21;99455.72;;;8.38;100.00
41898;BME280;27576;53.366;-1.498;2024-02-16T07:24:46;99530.81;;;8.75;100.00
41898;BME280;27576;53.366;-1.498;2024-02-16T07:27:11;99497.91;;;8.42;100.00
41898;BME280;27576;53.366;-1.498;2024-02-16T07:29:38;99560.09;;;8.75;100.00
41898;BME280;27576;53.366;-1.498;2024-02-16T07:32:04;99496.97;;;8.33;100.00
41898;BME280;27576;53.366;-1.498;2024-02-16T07:34:30;99565.22;;;8.66;100.00
41898;BME280;27576;53.366;-1.498;2024-02-16T07:36:55;99529.78;;;8.47;100.00
41898;BME280;27576;53.366;-1.498;2024-02-16T07:39:21;99537.56;;;8.51;100.00
41898;BME280;27576;53.366;-1.498;2024-02-16T07:41:48;99568.66;;;8.65;100.00
41898;BME280;27576;53.366;-1.498;2024-02-16T07:44:14;99527.16;;;8.38;100.00
41898;BME280;27576;53.366;-1.498;2024-02-16T07:46:40;99585.91;;;8.69;100.00
41898;BME280;27576;53.366;-1.498;2024-02-16T07:49:06;99577.19;;;8.56;100.00
41898;BME280;27576;53.366;-1.498;2024-02-16T07:51:31;99597.97;;;8.70;100.00
41898;BME280;27576;53.366;-1.498;2024-02-16T07:53:57;99577.16;;;8.50;100.00
41898;BME280;27576;53.366;-1.498;2024-02-16T07:56:22;99558.13;;;8.38;100.00
41898;BME280;27576;53.366;-1.498;2024-02-16T07:58:48;99617.72;;;8.68;100.00
41898;BME280;27576;53.366;-1.498;2024-02-16T08:01:13;99544.13;;;8.16;100.00
41898;BME280;27576;53.366;-1.498;2024-02-16T08:03:41;99551.03;;;8.18;100.00
41898;BME280;27576;53.366;-1.498;2024-02-16T08:06:07;99589.09;;;8.41;100.00
41898;BME280;27576;53.366;-1.498;2024-02-16T08:08:32;99570.00;;;8.23;100.00
41898;BME280;27576;53.366;-1.498;2024-02-16T08:10:58;99640.94;;;8.62;100.00
41898;BME280;27576;53.366;-1.498;2024-02-16T08:13:23;99551.81;;;8.09;100.00
41898;BME280;27576;53.366;-1.498;2024-02-16T08:15:48;99582.91;;;8.25;100.00
41898;BME280;27576;53.366;-1.498;2024-02-16T08:18:17;99640.06;;;8.62;100.00
41898;BME280;27576;53.366;-1.498;2024-02-16T08:20:43;99593.31;;;8.31;100.00
41898;BME280;27576;53.366;-1.498;2024-02-16T08:23:08;99595.84;;;8.28;100.00
41898;BME280;27576;53.366;-1.498;2024-02-16T08:25:34;99603.72;;;8.39;100.00
41898;BME280;27576;53.366;-1.498;2024-02-16T08:27:59;99648.72;;;8.68;100.00
41898;BME280;27576;53.366;-1.498;2024-02-16T08:30:25;99607.25;;;8.48;100.00
41898;BME280;27576;53.366;-1.498;2024-02-16T08:32:50;99640.97;;;8.65;100.00
41898;BME280;27576;53.366;-1.498;2024-02-16T08:35:16;99623.72;;;8.63;100.00
41898;BME280;27576;53.366;-1.498;2024-02-16T08:37:44;99619.41;;;8.63;100.00
41898;BME280;27576;53.366;-1.498;2024-02-16T08:40:10;99632.44;;;8.77;100.00
41898;BME280;27576;53.366;-1.498;2024-02-16T08:42:42;99647.22;;;8.93;100.00
41898;BME280;27576;53.366;-1.498;2024-02-16T08:45:08;99632.53;;;8.91;100.00
41898;BME280;27576;53.366;-1.498;2024-02-16T08:47:33;99610.94;;;8.79;100.00
41898;BME280;27576;53.366;-1.498;2024-02-16T08:49:59;99642.13;;;9.04;100.00
41898;BME280;27576;53.366;-1.498;2024-02-16T08:52:24;99638.69;;;9.09;100.00
41898;BME280;27576;53.366;-1.498;2024-02-16T08:54:49;99624.88;;;9.06;100.00
41898;BME280;27576;53.366;-1.498;2024-02-16T08:57:15;99671.63;;;9.43;100.00
41898;BME280;27576;53.366;-1.498;2024-02-16T08:59:40;99626.72;;;9.22;100.00
41898;BME280;27576;53.366;-1.498;2024-02-16T09:02:06;99693.34;;;9.68;100.00
41898;BME280;27576;53.366;-1.498;2024-02-16T09:04:31;99701.13;;;9.75;100.00
41898;BME280;27576;53.366;-1.498;2024-02-16T09:06:57;99680.41;;;9.72;100.00
41898;BME280;27576;53.366;-1.498;2024-02-16T09:09:22;99648.44;;;9.63;100.00
41898;BME280;27576;53.366;-1.498;2024-02-16T09:11:48;99702.94;;;9.92;100.00
41898;BME280;27576;53.366;-1.498;2024-02-16T09:14:13;99621.72;;;9.51;100.00
41898;BME280;27576;53.366;-1.498;2024-02-16T09:16:39;99646.75;;;9.65;100.00
41898;BME280;27576;53.366;-1.498;2024-02-16T09:19:05;99663.22;;;9.85;100.00
41898;BME280;27576;53.366;-1.498;2024-02-16T09:21:30;99686.53;;;9.93;100.00
41898;BME280;27576;53.366;-1.498;2024-02-16T09:23:56;99696.03;;;9.94;100.00
41898;BME280;27576;53.366;-1.498;2024-02-16T09:26:27;99695.13;;;9.90;100.00
41898;BME280;27576;53.366;-1.498;2024-02-16T09:28:56;99688.22;;;9.80;100.00
41898;BME280;27576;53.366;-1.498;2024-02-16T09:31:21;99740.97;;;10.06;100.00
41898;BME280;27576;53.366;-1.498;2024-02-16T09:33:47;99749.59;;;10.08;100.00
41898;BME280;27576;53.366;-1.498;2024-02-16T09:36:12;99686.44;;;9.74;100.00
41898;BME280;27576;53.366;-1.498;2024-02-16T09:38:37;99760.84;;;10.20;100.00
41898;BME280;27576;53.366;-1.498;2024-02-16T09:41:03;99723.63;;;9.92;100.00
41898;BME280;27576;53.366;-1.498;2024-02-16T09:43:29;99767.75;;;10.21;100.00
41898;BME280;27576;53.366;-1.498;2024-02-16T09:45:56;99774.66;;;10.14;100.00
41898;BME280;27576;53.366;-1.498;2024-02-16T09:48:22;99743.47;;;9.88;100.00
41898;BME280;27576;53.366;-1.498;2024-02-16T09:50:49;99733.03;;;9.73;100.00
41898;BME280;27576;53.366;-1.498;2024-02-16T09:53:16;99778.00;;;9.95;100.00
41898;BME280;27576;53.366;-1.498;2024-02-16T09:55:42;99736.44;;;9.70;100.00
41898;BME280;27576;53.366;-1.498;2024-02-16T09:58:08;99765.84;;;9.80;100.00
41898;BME280;27576;53.366;-1.498;2024-02-16T10:00:33;99800.44;;;9.97;100.00
41898;BME280;27576;53.366;-1.498;2024-02-16T10:02:59;99779.69;;;9.88;100.00
41898;BME280;27576;53.366;-1.498;2024-02-16T10:05:24;99795.28;;;10.02;100.00
41898;BME280;27576;53.366;-1.498;2024-02-16T10:07:50;99766.75;;;9.93;100.00
41898;BME280;27576;53.366;-1.498;2024-02-16T10:10:29;99759.88;;;9.98;100.00
41898;BME280;27576;53.366;-1.498;2024-02-16T10:13:06;99812.69;;;10.29;100.00
41898;BME280;27576;53.366;-1.498;2024-02-16T10:15:33;99806.69;;;10.31;100.00
41898;BME280;27576;53.366;-1.498;2024-02-16T10:18:02;99806.69;;;10.31;100.00
41898;BME280;27576;53.366;-1.498;2024-02-16T10:20:29;99764.22;;;10.00;100.00
41898;BME280;27576;53.366;-1.498;2024-02-16T10:23:10;99776.34;;;10.14;100.00
41898;BME280;27576;53.366;-1.498;2024-02-16T10:25:38;99811.88;;;10.39;100.00
41898;BME280;27576;53.366;-1.498;2024-02-16T10:28:09;99769.53;;;10.28;100.00
41898;BME280;27576;53.366;-1.498;2024-02-16T10:30:39;99829.25;;;10.63;100.00
41898;BME280;27576;53.366;-1.498;2024-02-16T10:33:05;99800.69;;;10.52;100.00
41898;BME280;27576;53.366;-1.498;2024-02-16T10:35:36;99784.31;;;10.58;100.00
41898;BME280;27576;53.366;-1.498;2024-02-16T10:38:03;99780.84;;;10.56;100.00
41898;BME280;27576;53.366;-1.498;2024-02-16T10:40:41;99746.28;;;10.42;100.00
41898;BME280;27576;53.366;-1.498;2024-02-16T10:43:08;99827.59;;;10.93;100.00
41898;BME280;27576;53.366;-1.498;2024-02-16T10:45:36;99831.91;;;10.89;100.00
41898;BME280;27576;53.366;-1.498;2024-02-16T10:48:03;99834.50;;;10.92;100.00
41898;BME280;27576;53.366;-1.498;2024-02-16T10:50:29;99838.84;;;10.93;100.00
41898;BME280;27576;53.366;-1.498;2024-02-16T10:52:57;99836.25;;;10.99;100.00
41898;BME280;27576;53.366;-1.498;2024-02-16T10:55:24;99834.53;;;11.03;100.00
41898;BME280;27576;53.366;-1.498;2024-02-16T10:57:49;99793.88;;;10.84;100.00
41898;BME280;27576;53.366;-1.498;2024-02-16T11:00:15;99863.94;;;11.17;100.00
41898;BME280;27576;53.366;-1.498;2024-02-16T11:02:58;99858.72;;;11.03;100.00
41898;BME280;27576;53.366;-1.498;2024-02-16T11:05:41;99849.19;;;10.89;100.00
41898;BME280;27576;53.366;-1.498;2024-02-16T11:08:17;99865.59;;;10.91;100.00
41898;BME280;27576;53.366;-1.498;2024-02-16T11:11:01;99792.94;;;10.46;100.00
41898;BME280;27576;53.366;-1.498;2024-02-16T11:13:34;99879.38;;;10.80;100.00
41898;BME280;27576;53.366;-1.498;2024-02-16T11:16:01;99879.38;;;10.80;100.00
41898;BME280;27576;53.366;-1.498;2024-02-16T11:18:29;99869.88;;;10.75;100.00
41898;BME280;27576;53.366;-1.498;2024-02-16T11:20:55;99865.53;;;10.66;100.00
41898;BME280;27576;53.366;-1.498;2024-02-16T11:23:27;99894.94;;;10.77;100.00
41898;BME280;27576;53.366;-1.498;2024-02-16T11:25:58;99855.97;;;10.51;100.00
41898;BME280;27576;53.366;-1.498;2024-02-16T11:28:26;99894.06;;;10.69;100.00
41898;BME280;27576;53.366;-1.498;2024-02-16T11:30:52;99916.56;;;10.86;100.00
41898;BME280;27576;53.366;-1.498;2024-02-16T11:33:17;99880.19;;;10.63;100.00
41898;BME280;27576;53.366;-1.498;2024-02-16T11:35:52;99931.31;;;11.03;100.00
41898;BME280;27576;53.366;-1.498;2024-02-16T11:38:18;99925.31;;;11.09;100.00
41898;BME280;27576;53.366;-1.498;2024-02-16T11:41:10;99887.19;;;10.88;100.00
41898;BME280;27576;53.366;-1.498;2024-02-16T11:43:36;99942.63;;;11.21;100.00
41898;BME280;27576;53.366;-1.498;2024-02-16T11:46:12;99909.75;;;11.14;100.00
41898;BME280;27576;53.366;-1.498;2024-02-16T11:48:38;99874.31;;;11.13;100.00
41898;BME280;27576;53.366;-1.498;2024-02-16T11:51:04;99900.31;;;11.57;100.00
41898;BME280;27576;53.366;-1.498;2024-02-16T11:53:31;99940.13;;;12.05;100.00
41898;BME280;27576;53.366;-1.498;2024-02-16T11:55:57;99921.09;;;12.00;100.00
41898;BME280;27576;53.366;-1.498;2024-02-16T11:58:23;99930.63;;;11.99;100.00
41898;BME280;27576;53.366;-1.498;2024-02-16T12:00:50;99902.03;;;11.64;100.00
41898;BME280;27576;53.366;-1.498;2024-02-16T12:03:23;99900.31;;;11.57;100.00
41898;BME280;27576;53.366;-1.498;2024-02-16T12:05:58;99955.72;;;12.02;100.00
41898;BME280;27576;53.366;-1.498;2024-02-16T12:08:24;99960.03;;;12.01;100.00
41898;BME280;27576;53.366;-1.498;2024-02-16T12:10:51;99958.31;;;11.91;100.00
41898;BME280;27576;53.366;-1.498;2024-02-16T12:13:17;99962.59;;;11.78;100.00
41898;BME280;27576;53.366;-1.498;2024-02-16T12:15:51;99926.22;;;11.39;100.00
41898;BME280;27576;53.366;-1.498;2024-02-16T12:18:27;99927.06;;;11.24;100.00
41898;BME280;27576;53.366;-1.498;2024-02-16T12:21:02;99934.84;;;11.22;100.00
41898;BME280;27576;53.366;-1.498;2024-02-16T12:23:29;99927.03;;;11.13;100.00
41898;BME280;27576;53.366;-1.498;2024-02-16T12:25:58;99955.63;;;11.28;100.00
41898;BME280;27576;53.366;-1.498;2024-02-16T12:28:25;99959.91;;;11.31;100.00
41898;BME280;27576;53.366;-1.498;2024-02-16T12:30:50;99899.31;;;11.00;100.00
41898;BME280;27576;53.366;-1.498;2024-02-16T12:33:16;99966.91;;;11.53;100.00
41898;BME280;27576;53.366;-1.498;2024-02-16T12:35:42;99945.28;;;11.48;100.00
41898;BME280;27576;53.366;-1.498;2024-02-16T12:38:07;99948.72;;;11.55;100.00
41898;BME280;27576;53.366;-1.498;2024-02-16T12:40:32;99985.97;;;11.82;100.00